Time;durP1;ratioP1;P1;durP2;ratioP2;P2;SDS_P1;SDS_P2;PMS_P1;PMS_P2;Temp;Humidity;BMP_temperature;BMP_pressure;BME280_temperature;BME280_humidity;BME280_pressure;Samples;Min_cycle;Max_cycle;Signal;HPM_P1;HPM_P2
2024/01/09 00:02:22;;;;;;;17.83;5.20;;;-3.60;99.90;;;;;;4954356;28;87038;-85
2024/01/09 00:04:49;;;;;;;13.60;5.32;;;-3.60;99.90;;;;;;4959906;28;87069;-85
2024/01/09 00:08:03;;;;;;;10.95;5.07;;;-3.60;99.90;;;;;;4937932;28;87958;-86
2024/01/09 00:10:33;;;;;;;11.57;5.00;;;-3.60;99.90;;;;;;4954594;28;87088;-86
2024/01/09 00:12:59;;;;;;;10.18;5.32;;;-3.60;99.90;;;;;;4939692;28;86394;-86
2024/01/09 00:15:27;;;;;;;11.38;4.70;;;-3.60;99.90;;;;;;4939627;28;86425;-87
2024/01/09 00:17:58;;;;;;;16.45;5.85;;;-3.60;99.90;;;;;;4940064;28;87944;-86
2024/01/09 00:20:28;;;;;;;11.90;4.88;;;-3.70;99.90;;;;;;4944652;28;87034;-86
2024/01/09 00:23:26;;;;;;;12.20;5.30;;;-3.70;99.90;;;;;;4941667;28;87981;-86
2024/01/09 00:25:53;;;;;;;14.15;5.93;;;-3.70;99.90;;;;;;4939419;28;87158;-84
2024/01/09 00:28:43;;;;;;;15.98;5.00;;;-3.70;99.90;;;;;;4940344;28;87285;-86
2024/01/09 00:37:53;;;;;;;10.38;4.93;;;-3.80;99.90;;;;;;4958445;28;86458;-86
2024/01/09 00:40:26;;;;;;;10.93;5.68;;;-3.80;99.90;;;;;;4939547;28;87174;-85
2024/01/09 00:42:56;;;;;;;11.68;5.10;;;-3.80;99.90;;;;;;4982583;23;86801;-80
2024/01/09 00:45:22;;;;;;;12.43;4.78;;;-3.80;99.90;;;;;;4965492;28;87708;-78
2024/01/09 00:47:50;;;;;;;12.05;5.38;;;-3.80;99.90;;;;;;4948519;28;89928;-80
2024/01/09 00:50:15;;;;;;;12.18;5.68;;;-3.80;99.90;;;;;;4963993;28;88088;-79
2024/01/09 00:52:41;;;;;;;12.02;5.15;;;-3.80;99.90;;;;;;4958714;28;87717;-79
2024/01/09 00:55:08;;;;;;;12.60;5.32;;;-3.80;99.90;;;;;;4970672;28;87260;-81
2024/01/09 00:57:36;;;;;;;13.55;5.53;;;-3.90;99.90;;;;;;4965630;28;87064;-78
2024/01/09 01:00:02;;;;;;;13.30;5.43;;;-3.90;99.90;;;;;;4963814;28;87695;-77
2024/01/09 01:02:28;;;;;;;12.43;5.95;;;-3.90;99.90;;;;;;4967112;28;87006;-78
2024/01/09 01:04:53;;;;;;;12.10;5.25;;;-3.90;99.90;;;;;;4965810;28;87391;-79
2024/01/09 01:07:19;;;;;;;12.90;5.57;;;-3.90;99.90;;;;;;4959592;28;87123;-79
2024/01/09 01:09:45;;;;;;;12.35;5.82;;;-3.90;99.90;;;;;;4951895;28;87596;-78
2024/01/09 01:12:11;;;;;;;11.23;5.13;;;-3.90;99.90;;;;;;4966030;28;86871;-78
2024/01/09 01:14:37;;;;;;;11.15;4.70;;;-3.90;99.90;;;;;;4950885;28;88242;-78
2024/01/09 01:17:03;;;;;;;14.35;5.63;;;-3.90;99.90;;;;;;4947362;28;87515;-78
2024/01/09 01:19:29;;;;;;;12.75;5.25;;;-4.00;99.90;;;;;;4962947;28;88623;-79
2024/01/09 01:21:55;;;;;;;15.27;6.05;;;-4.00;99.90;;;;;;4958753;28;87430;-79
2024/01/09 01:24:20;;;;;;;11.65;5.47;;;-4.00;99.90;;;;;;4966234;28;87500;-77
2024/01/09 01:26:46;;;;;;;12.23;5.13;;;-4.00;99.90;;;;;;4947495;28;87598;-78
2024/01/09 01:29:12;;;;;;;15.32;5.95;;;-4.00;99.90;;;;;;4953948;28;87932;-79
2024/01/09 01:31:38;;;;;;;11.20;4.68;;;-4.00;99.90;;;;;;4961397;28;87445;-78
2024/01/09 01:34:03;;;;;;;13.10;5.90;;;-4.00;99.90;;;;;;4967519;28;87575;-79
2024/01/09 01:36:30;;;;;;;13.10;5.50;;;-4.00;99.90;;;;;;4945382;28;87658;-79
2024/01/09 01:38:56;;;;;;;11.60;5.45;;;-4.00;99.90;;;;;;4954060;28;88833;-79
2024/01/09 01:41:22;;;;;;;14.70;4.97;;;-4.00;99.90;;;;;;4946132;28;88443;-80
2024/01/09 01:43:48;;;;;;;12.00;5.78;;;-4.00;99.90;;;;;;4951117;28;87560;-80
2024/01/09 01:46:14;;;;;;;15.52;6.00;;;-4.00;99.90;;;;;;4966719;28;86930;-78
2024/01/09 01:48:41;;;;;;;12.52;5.70;;;-4.00;99.90;;;;;;4950972;28;87119;-79
2024/01/09 01:51:07;;;;;;;13.60;5.53;;;-4.00;99.90;;;;;;4948706;28;87520;-79
2024/01/09 01:53:34;;;;;;;15.30;6.05;;;-4.00;99.90;;;;;;4951573;28;87189;-80
2024/01/09 01:56:01;;;;;;;13.55;5.60;;;-4.00;99.90;;;;;;4950003;28;86453;-78
2024/01/09 01:58:29;;;;;;;14.15;5.65;;;-4.10;99.90;;;;;;4947636;28;89451;-77
2024/01/09 02:00:55;;;;;;;10.80;4.80;;;-4.10;99.90;;;;;;4964614;28;87522;-79
2024/01/09 02:03:21;;;;;;;11.52;5.65;;;-4.10;99.90;;;;;;4969778;28;87994;-77
2024/01/09 02:05:48;;;;;;;12.88;5.38;;;-4.10;99.90;;;;;;4967466;28;87283;-77
2024/01/09 02:08:14;;;;;;;13.18;5.95;;;-4.10;99.90;;;;;;4943739;28;87723;-78
2024/01/09 02:10:40;;;;;;;16.40;6.43;;;-4.10;99.90;;;;;;4949273;28;87900;-79
2024/01/09 02:13:07;;;;;;;13.50;5.22;;;-4.10;99.90;;;;;;4952325;28;86974;-78
2024/01/09 02:15:34;;;;;;;11.68;5.65;;;-4.10;99.90;;;;;;4950513;28;87859;-80
2024/01/09 02:18:00;;;;;;;12.48;5.95;;;-4.10;99.90;;;;;;4950488;28;87943;-79
2024/01/09 02:20:26;;;;;;;15.95;5.45;;;-4.10;99.90;;;;;;4959235;28;86770;-78
2024/01/09 02:22:52;;;;;;;13.98;5.95;;;-4.10;99.90;;;;;;4952452;28;87458;-78
2024/01/09 02:25:18;;;;;;;16.63;5.78;;;-4.10;99.90;;;;;;4964636;28;87741;-77
2024/01/09 02:28:01;;;;;;;11.38;5.63;;;-4.10;99.90;;;;;;4953464;28;89193;-80
2024/01/09 02:30:27;;;;;;;13.20;5.47;;;-4.10;99.90;;;;;;4952315;28;89051;-78
2024/01/09 02:32:55;;;;;;;14.93;6.53;;;-4.20;99.90;;;;;;4967911;28;87268;-78
2024/01/09 02:35:21;;;;;;;15.75;5.97;;;-4.20;99.90;;;;;;4948089;28;87144;-82
2024/01/09 02:37:47;;;;;;;13.25;5.32;;;-4.20;99.90;;;;;;4967016;28;88272;-79
2024/01/09 02:40:15;;;;;;;12.73;5.57;;;-4.20;99.90;;;;;;4944749;28;90142;-78
2024/01/09 02:42:43;;;;;;;15.73;6.25;;;-4.20;99.90;;;;;;4950028;28;87211;-80
2024/01/09 02:45:10;;;;;;;13.77;6.15;;;-4.20;99.90;;;;;;4957949;28;86324;-77
2024/01/09 02:47:36;;;;;;;14.05;5.97;;;-4.20;99.90;;;;;;4948503;28;88460;-79
2024/01/09 02:50:03;;;;;;;16.15;6.57;;;-4.20;99.90;;;;;;4965357;28;87339;-81
2024/01/09 02:52:29;;;;;;;15.18;6.63;;;-4.20;99.90;;;;;;4959293;28;88112;-80
2024/01/09 02:54:56;;;;;;;14.35;5.93;;;-4.20;99.90;;;;;;4962247;28;87020;-80
2024/01/09 02:57:22;;;;;;;14.90;5.90;;;-4.20;99.90;;;;;;4967283;28;87671;-80
2024/01/09 02:59:48;;;;;;;13.43;5.15;;;-4.20;99.90;;;;;;4952302;28;91534;-79
2024/01/09 03:02:14;;;;;;;16.17;5.80;;;-4.20;99.90;;;;;;4969192;28;87296;-79
2024/01/09 03:04:41;;;;;;;14.82;5.70;;;-4.30;99.90;;;;;;4961430;28;87043;-78
2024/01/09 03:07:08;;;;;;;11.07;5.35;;;-4.20;99.90;;;;;;4960719;28;88169;-79
2024/01/09 03:09:35;;;;;;;13.02;5.72;;;-4.20;99.90;;;;;;4950788;28;87281;-80
2024/01/09 03:12:04;;;;;;;12.50;5.38;;;-4.30;99.90;;;;;;4948990;28;87914;-77
2024/01/09 03:14:31;;;;;;;13.50;5.53;;;-4.30;99.90;;;;;;4948334;28;86774;-79
2024/01/09 03:16:57;;;;;;;13.57;5.90;;;-4.30;99.90;;;;;;4944372;28;88758;-82
2024/01/09 03:19:23;;;;;;;12.57;5.57;;;-4.30;99.90;;;;;;4937775;28;89913;-80
2024/01/09 03:21:49;;;;;;;19.48;6.72;;;-4.30;99.90;;;;;;4950029;28;87372;-79
2024/01/09 03:24:15;;;;;;;13.70;5.55;;;-4.30;99.90;;;;;;4941253;28;87187;-80
2024/01/09 03:26:42;;;;;;;13.40;5.60;;;-4.30;99.90;;;;;;4949924;28;87735;-78
2024/01/09 03:29:08;;;;;;;19.42;6.63;;;-4.30;99.90;;;;;;4951179;28;89271;-79
2024/01/09 03:31:34;;;;;;;14.13;6.32;;;-4.30;99.90;;;;;;4949766;28;86786;-80
2024/01/09 03:34:00;;;;;;;14.18;5.90;;;-4.40;99.90;;;;;;4952483;28;86390;-79
2024/01/09 03:36:26;;;;;;;15.80;6.47;;;-4.40;99.90;;;;;;4953140;28;87471;-81
2024/01/09 03:38:53;;;;;;;13.18;5.90;;;-4.40;99.90;;;;;;4954978;28;88244;-79
2024/01/09 03:41:19;;;;;;;17.00;6.10;;;-4.40;99.90;;;;;;4969832;28;88742;-78
2024/01/09 03:43:46;;;;;;;15.85;6.32;;;-4.40;99.90;;;;;;4969610;28;87301;-80
2024/01/09 03:46:12;;;;;;;14.93;5.32;;;-4.40;99.90;;;;;;4949831;28;87778;-80
2024/01/09 03:48:38;;;;;;;15.45;5.70;;;-4.40;99.90;;;;;;4965463;28;87655;-78
2024/01/09 03:51:05;;;;;;;14.52;6.32;;;-4.50;99.90;;;;;;4954670;28;86828;-81
2024/01/09 03:53:31;;;;;;;14.27;6.05;;;-4.40;99.90;;;;;;4947331;28;86892;-80
2024/01/09 03:55:57;;;;;;;19.67;6.85;;;-4.50;99.90;;;;;;4949361;28;87903;-78
2024/01/09 03:58:23;;;;;;;18.42;6.50;;;-4.40;99.90;;;;;;4948399;28;87096;-78
2024/01/09 04:00:48;;;;;;;13.18;5.68;;;-4.50;99.90;;;;;;4970043;28;87276;-80
2024/01/09 04:03:15;;;;;;;12.32;6.20;;;-4.50;99.90;;;;;;4948054;28;87194;-80
2024/01/09 04:05:40;;;;;;;11.73;5.68;;;-4.50;99.90;;;;;;4968432;28;88160;-77
2024/01/09 04:08:06;;;;;;;14.25;5.53;;;-4.50;99.90;;;;;;4946671;28;89207;-78
2024/01/09 04:10:32;;;;;;;14.68;6.13;;;-4.50;99.90;;;;;;4966005;28;87065;-78
2024/01/09 04:13:20;;;;;;;12.90;5.97;;;-4.50;99.90;;;;;;4947515;28;88111;-80
2024/01/09 04:15:46;;;;;;;11.82;5.53;;;-4.50;99.90;;;;;;4967673;28;89757;-77
2024/01/09 04:18:12;;;;;;;12.95;5.70;;;-4.50;99.90;;;;;;4967888;28;87083;-79
2024/01/09 04:20:39;;;;;;;15.02;6.07;;;-4.50;99.90;;;;;;4967465;28;88639;-79
2024/01/09 04:23:05;;;;;;;12.15;5.72;;;-4.60;99.90;;;;;;4949190;28;87417;-79
2024/01/09 04:25:32;;;;;;;14.68;6.03;;;-4.60;99.90;;;;;;4953392;28;87725;-78
2024/01/09 04:27:58;;;;;;;12.70;5.88;;;-4.50;99.90;;;;;;4949377;28;87504;-80
2024/01/09 04:30:26;;;;;;;12.40;5.15;;;-4.60;99.90;;;;;;4953955;28;88404;-79
2024/01/09 04:32:52;;;;;;;12.55;5.18;;;-4.60;99.90;;;;;;4954659;28;88314;-78
2024/01/09 04:35:18;;;;;;;9.02;4.43;;;-4.60;99.90;;;;;;4951762;28;87776;-78
2024/01/09 04:37:44;;;;;;;13.95;5.72;;;-4.60;99.90;;;;;;4962941;28;87837;-77
2024/01/09 04:40:10;;;;;;;13.30;5.38;;;-4.60;99.90;;;;;;4972212;28;87230;-77
2024/01/09 04:42:36;;;;;;;13.50;6.38;;;-4.60;99.90;;;;;;4952005;28;87333;-78
2024/01/09 04:45:03;;;;;;;16.35;5.82;;;-4.60;99.90;;;;;;4952969;28;86784;-78
2024/01/09 04:47:29;;;;;;;10.15;4.90;;;-4.60;99.90;;;;;;4969864;28;87028;-80
2024/01/09 04:49:55;;;;;;;11.85;5.38;;;-4.70;99.90;;;;;;4956771;28;87951;-78
2024/01/09 04:52:21;;;;;;;16.52;6.20;;;-4.60;99.90;;;;;;4955532;28;87448;-78
2024/01/09 04:54:47;;;;;;;13.70;6.40;;;-4.60;99.90;;;;;;4974589;28;89713;-80
2024/01/09 04:57:13;;;;;;;13.13;5.00;;;-4.70;99.90;;;;;;4963787;28;88291;-76
2024/01/09 04:59:42;;;;;;;10.80;4.88;;;-4.70;99.90;;;;;;4957879;28;87376;-78
2024/01/09 05:02:08;;;;;;;18.17;7.80;;;-4.70;99.90;;;;;;4948047;28;87742;-80
2024/01/09 05:04:34;;;;;;;13.13;5.13;;;-4.70;99.90;;;;;;4959532;28;87477;-78
2024/01/09 05:07:00;;;;;;;14.10;5.85;;;-4.80;99.90;;;;;;4971039;28;87989;-78
2024/01/09 05:09:26;;;;;;;14.15;6.07;;;-4.80;99.90;;;;;;4957298;28;87190;-79
2024/01/09 05:11:52;;;;;;;16.00;6.15;;;-4.80;99.90;;;;;;4965414;28;86744;-79
2024/01/09 05:14:18;;;;;;;17.10;5.80;;;-4.80;99.90;;;;;;4956362;28;87232;-81
2024/01/09 05:16:44;;;;;;;19.17;5.85;;;-4.70;99.90;;;;;;4969642;28;89406;-78
2024/01/09 05:19:10;;;;;;;11.60;4.82;;;-4.80;99.90;;;;;;4968805;28;87298;-77
2024/01/09 05:21:36;;;;;;;14.15;5.13;;;-4.80;99.90;;;;;;4969891;28;87388;-77
2024/01/09 05:24:02;;;;;;;12.82;5.13;;;-4.80;99.90;;;;;;4957922;28;88485;-77
2024/01/09 05:26:28;;;;;;;13.15;5.22;;;-4.80;99.90;;;;;;4955633;28;87529;-78
2024/01/09 05:28:54;;;;;;;12.13;5.60;;;-4.80;99.90;;;;;;4973223;28;87264;-78
2024/01/09 05:31:20;;;;;;;14.93;5.40;;;-4.80;99.90;;;;;;4974322;28;86689;-77
2024/01/09 05:33:47;;;;;;;15.60;5.93;;;-4.80;99.90;;;;;;4954923;28;87727;-77
2024/01/09 05:36:18;;;;;;;13.30;5.75;;;-4.80;99.90;;;;;;4957953;28;88006;-79
2024/01/09 05:38:44;;;;;;;16.13;6.13;;;-4.80;99.90;;;;;;4968630;28;87245;-78
2024/01/09 05:41:19;;;;;;;15.13;5.70;;;-4.80;99.90;;;;;;4971691;28;87026;-78
2024/01/09 05:43:45;;;;;;;13.55;5.28;;;-4.80;99.90;;;;;;4946733;28;88806;-78
2024/01/09 05:46:10;;;;;;;10.93;4.53;;;-4.80;99.90;;;;;;4942890;28;88477;-78
2024/01/09 05:48:36;;;;;;;12.60;5.15;;;-4.80;99.90;;;;;;4965091;28;87512;-79
2024/01/09 05:51:03;;;;;;;12.10;5.30;;;-4.80;99.90;;;;;;4969789;28;87861;-78
2024/01/09 05:53:28;;;;;;;12.25;5.07;;;-4.80;99.90;;;;;;4955681;28;87426;-79
2024/01/09 05:55:54;;;;;;;11.77;4.95;;;-4.80;99.90;;;;;;4955300;28;87410;-79
2024/01/09 05:58:21;;;;;;;14.18;5.35;;;-4.80;99.90;;;;;;4967881;28;87869;-78
2024/01/09 06:00:47;;;;;;;12.38;5.22;;;-4.80;99.90;;;;;;4955060;28;86903;-78
2024/01/09 06:03:13;;;;;;;12.13;5.45;;;-4.80;99.90;;;;;;4943147;28;87751;-78
2024/01/09 06:05:39;;;;;;;11.25;4.60;;;-4.90;99.90;;;;;;4951940;28;87905;-78
2024/01/09 06:08:05;;;;;;;11.77;4.63;;;-4.90;99.90;;;;;;4950795;28;87972;-79
2024/01/09 06:10:31;;;;;;;14.13;6.10;;;-4.90;99.90;;;;;;4948801;28;87635;-78
2024/01/09 06:12:57;;;;;;;10.95;4.43;;;-4.90;99.90;;;;;;4949301;28;87315;-79
2024/01/09 06:15:23;;;;;;;12.45;4.85;;;-4.90;99.90;;;;;;4946274;28;87370;-78
2024/01/09 06:17:49;;;;;;;14.20;4.57;;;-4.90;99.90;;;;;;4953917;28;87410;-78
2024/01/09 06:20:15;;;;;;;8.80;4.38;;;-4.90;99.90;;;;;;4947756;28;86696;-78
2024/01/09 06:22:41;;;;;;;10.98;5.13;;;-4.90;99.90;;;;;;4956797;28;88038;-80
2024/01/09 06:25:06;;;;;;;10.30;4.20;;;-4.90;99.90;;;;;;4955611;28;86896;-80
2024/01/09 06:27:32;;;;;;;11.02;4.35;;;-4.90;99.90;;;;;;4951932;28;87109;-79
2024/01/09 06:29:58;;;;;;;16.63;5.55;;;-4.90;99.90;;;;;;4968924;28;87180;-76
2024/01/09 06:32:24;;;;;;;10.05;4.90;;;-5.00;99.90;;;;;;4961717;28;89150;-77
2024/01/09 06:34:50;;;;;;;11.88;4.43;;;-5.00;99.90;;;;;;4953562;28;88070;-77
2024/01/09 06:37:15;;;;;;;12.45;5.07;;;-5.00;99.90;;;;;;4965369;28;87019;-77
2024/01/09 06:39:41;;;;;;;9.13;4.30;;;-5.00;99.90;;;;;;4961538;28;87414;-79
2024/01/09 06:42:07;;;;;;;13.10;4.97;;;-5.00;99.90;;;;;;4946892;28;88506;-79
2024/01/09 06:44:33;;;;;;;10.27;4.55;;;-5.00;99.90;;;;;;4970653;28;88353;-78
2024/01/09 06:46:59;;;;;;;19.90;5.60;;;-5.00;99.90;;;;;;4963686;28;87556;-78
2024/01/09 06:49:24;;;;;;;11.27;4.88;;;-5.00;99.90;;;;;;4961730;28;86751;-78
2024/01/09 06:51:53;;;;;;;12.57;4.93;;;-5.00;99.90;;;;;;4965780;28;87031;-77
2024/01/09 06:54:20;;;;;;;12.02;4.63;;;-5.00;99.90;;;;;;4972321;28;87561;-79
2024/01/09 06:56:47;;;;;;;10.07;4.28;;;-5.00;99.90;;;;;;4961762;28;88021;-79
2024/01/09 06:59:13;;;;;;;11.85;4.57;;;-5.00;99.90;;;;;;4942632;28;87816;-80
2024/01/09 07:01:39;;;;;;;12.40;4.65;;;-5.00;99.90;;;;;;4962904;28;87698;-79
2024/01/09 07:04:08;;;;;;;10.13;5.03;;;-5.00;99.90;;;;;;4950242;28;87377;-78
2024/01/09 07:06:34;;;;;;;11.45;5.32;;;-5.00;99.90;;;;;;4950687;28;87003;-78
2024/01/09 07:09:00;;;;;;;11.50;5.25;;;-5.00;99.90;;;;;;4954763;28;87455;-78
2024/01/09 07:11:26;;;;;;;12.68;4.85;;;-5.10;99.90;;;;;;4953749;28;88123;-78
2024/01/09 07:13:53;;;;;;;11.60;5.07;;;-5.10;99.90;;;;;;4953471;28;87009;-78
2024/01/09 07:16:19;;;;;;;21.58;5.47;;;-5.10;99.90;;;;;;4969653;28;87182;-78
2024/01/09 07:18:45;;;;;;;10.70;4.43;;;-5.10;99.90;;;;;;4971546;28;87591;-78
2024/01/09 07:21:11;;;;;;;12.52;5.22;;;-5.10;99.90;;;;;;4967752;28;88851;-78
2024/01/09 07:23:40;;;;;;;11.60;5.18;;;-5.10;99.90;;;;;;4971092;28;88258;-78
2024/01/09 07:26:06;;;;;;;15.55;5.93;;;-5.10;99.90;;;;;;4954225;28;87030;-78
2024/01/09 07:28:32;;;;;;;14.02;5.72;;;-5.10;99.90;;;;;;4952202;28;87180;-78
2024/01/09 07:30:57;;;;;;;14.73;6.03;;;-5.10;99.90;;;;;;4951560;28;88063;-80
2024/01/09 07:33:23;;;;;;;14.80;5.50;;;-5.10;99.90;;;;;;4965337;28;87656;-78
2024/01/09 07:35:49;;;;;;;13.43;5.07;;;-5.10;99.90;;;;;;4965905;28;88976;-79
2024/01/09 07:38:21;;;;;;;14.70;5.70;;;-5.10;99.90;;;;;;4947945;28;86039;-77
2024/01/09 07:40:50;;;;;;;13.50;5.32;;;-5.10;99.90;;;;;;4964188;28;87843;-82
2024/01/09 07:43:18;;;;;;;12.70;5.55;;;-5.20;99.90;;;;;;4951497;28;87124;-79
2024/01/09 07:45:46;;;;;;;13.10;5.72;;;-5.10;99.90;;;;;;4964896;28;88062;-79
2024/01/09 07:48:13;;;;;;;13.68;5.93;;;-5.20;99.90;;;;;;4951350;28;88677;-79
2024/01/09 07:50:39;;;;;;;16.40;5.85;;;-5.20;99.90;;;;;;4968293;28;87916;-79
2024/01/09 07:53:05;;;;;;;12.27;5.50;;;-5.20;99.90;;;;;;4941935;28;87639;-79
2024/01/09 07:55:31;;;;;;;16.08;6.07;;;-5.20;99.90;;;;;;4955788;28;87177;-77
2024/01/09 07:58:01;;;;;;;17.02;6.95;;;-5.20;99.90;;;;;;4971501;28;87147;-81
2024/01/09 08:00:27;;;;;;;14.82;5.47;;;-5.20;99.90;;;;;;4954510;28;88680;-79
2024/01/09 08:02:53;;;;;;;14.20;5.85;;;-5.20;99.90;;;;;;4954279;28;87718;-79
2024/01/09 08:05:20;;;;;;;15.73;6.53;;;-5.20;99.90;;;;;;4954940;28;87572;-80
2024/01/09 08:07:45;;;;;;;12.68;5.97;;;-5.20;99.90;;;;;;4969139;28;87129;-77
2024/01/09 08:10:11;;;;;;;16.27;6.00;;;-5.20;99.90;;;;;;4965945;28;88898;-79
2024/01/09 08:12:37;;;;;;;13.10;6.38;;;-5.20;99.90;;;;;;4955437;28;88221;-78
2024/01/09 08:15:03;;;;;;;15.25;6.75;;;-5.20;99.90;;;;;;4956065;28;87593;-78
2024/01/09 08:17:29;;;;;;;16.30;6.97;;;-5.10;99.90;;;;;;4943905;28;87165;-78
2024/01/09 08:19:55;;;;;;;12.65;6.38;;;-5.10;99.90;;;;;;4966646;28;88608;-79
2024/01/09 08:22:21;;;;;;;14.90;6.60;;;-5.00;99.90;;;;;;4952766;28;89724;-78
2024/01/09 08:24:47;;;;;;;14.48;6.35;;;-4.90;99.90;;;;;;4953431;28;87601;-78
2024/01/09 08:27:13;;;;;;;18.05;6.57;;;-4.80;99.90;;;;;;4955766;28;87096;-77
2024/01/09 08:29:42;;;;;;;16.60;6.80;;;-4.70;99.90;;;;;;4948813;28;88168;-81
2024/01/09 08:32:10;;;;;;;16.17;6.80;;;-4.60;99.90;;;;;;4968627;28;87577;-80
2024/01/09 08:34:36;;;;;;;16.55;7.13;;;-4.60;99.90;;;;;;4953357;28;88620;-76
2024/01/09 08:37:02;;;;;;;18.42;7.10;;;-4.60;99.90;;;;;;4969327;28;87928;-79
2024/01/09 08:39:30;;;;;;;12.40;5.95;;;-4.60;99.90;;;;;;4954733;28;88572;-79
2024/01/09 08:41:56;;;;;;;17.50;7.28;;;-4.50;99.90;;;;;;4954343;28;87832;-80
2024/01/09 08:44:22;;;;;;;16.08;7.28;;;-4.50;99.90;;;;;;4954591;28;87160;-78
2024/01/09 08:46:48;;;;;;;14.25;6.20;;;-4.50;99.90;;;;;;4965301;28;89151;-81
2024/01/09 08:49:13;;;;;;;15.52;6.32;;;-4.40;99.90;;;;;;4953976;28;87593;-79
2024/01/09 08:51:39;;;;;;;17.55;6.82;;;-4.40;99.90;;;;;;4944732;28;87230;-77
2024/01/09 08:54:07;;;;;;;18.75;6.25;;;-4.40;99.90;;;;;;4957977;28;87688;-78
2024/01/09 08:56:34;;;;;;;14.85;6.20;;;-4.40;99.90;;;;;;4957803;28;87625;-80
2024/01/09 08:59:00;;;;;;;14.43;6.43;;;-4.30;99.90;;;;;;4973503;28;90526;-78
2024/01/09 09:01:26;;;;;;;13.98;6.03;;;-4.30;99.90;;;;;;4966848;28;88633;-77
2024/01/09 09:03:53;;;;;;;18.60;6.63;;;-4.30;99.90;;;;;;4950407;28;87590;-78
2024/01/09 09:06:19;;;;;;;12.45;6.10;;;-4.30;99.90;;;;;;4954249;28;87391;-78
2024/01/09 09:08:44;;;;;;;13.65;5.90;;;-4.20;99.90;;;;;;4968331;28;87287;-82
2024/01/09 09:11:14;;;;;;;16.70;7.05;;;-4.20;99.90;;;;;;4952309;28;88046;-78
2024/01/09 09:13:42;;;;;;;17.38;6.93;;;-4.20;99.90;;;;;;4948123;28;87381;-77
2024/01/09 09:16:08;;;;;;;19.67;6.80;;;-4.10;99.90;;;;;;4950784;28;86025;-80
2024/01/09 09:18:34;;;;;;;16.73;6.88;;;-4.00;99.90;;;;;;4966168;28;87221;-79
2024/01/09 09:21:04;;;;;;;13.45;6.00;;;-3.90;99.90;;;;;;4951265;28;87239;-78
2024/01/09 09:23:30;;;;;;;15.60;6.47;;;-3.90;99.90;;;;;;4936580;28;88067;-78
2024/01/09 09:25:57;;;;;;;13.60;6.13;;;-3.80;99.90;;;;;;4959026;28;87007;-79
2024/01/09 09:28:24;;;;;;;14.25;6.68;;;-3.80;99.90;;;;;;4949894;28;88534;-78
2024/01/09 09:30:49;;;;;;;19.15;6.70;;;-3.70;99.90;;;;;;4963555;28;87351;-78
2024/01/09 09:33:15;;;;;;;12.40;6.13;;;-3.60;99.90;;;;;;4967063;28;87874;-80
2024/01/09 09:35:41;;;;;;;14.07;5.90;;;-3.60;99.90;;;;;;4966933;28;87505;-79
2024/01/09 09:38:07;;;;;;;14.57;6.63;;;-3.50;99.90;;;;;;4967201;28;88966;-78
2024/01/09 09:40:33;;;;;;;15.57;6.95;;;-3.50;99.90;;;;;;4966564;28;87553;-79
2024/01/09 09:43:02;;;;;;;13.02;5.38;;;-3.40;99.90;;;;;;4963921;28;87430;-80
2024/01/09 09:45:31;;;;;;;17.70;6.88;;;-3.30;99.90;;;;;;4961017;28;87449;-81
2024/01/09 09:47:58;;;;;;;21.90;6.78;;;-3.30;99.90;;;;;;4947581;28;89455;-78
2024/01/09 09:50:26;;;;;;;12.85;6.60;;;-3.10;99.90;;;;;;4946953;28;88677;-80
2024/01/09 09:52:58;;;;;;;19.25;6.68;;;-3.10;99.90;;;;;;4967809;28;87448;-79
2024/01/09 09:55:24;;;;;;;13.23;6.07;;;-3.00;99.90;;;;;;4960899;28;87051;-81
2024/01/09 09:57:50;;;;;;;15.00;6.15;;;-2.90;99.90;;;;;;4966462;28;87458;-80
2024/01/09 10:00:18;;;;;;;14.98;6.50;;;-2.80;99.90;;;;;;4963327;28;88354;-81
2024/01/09 10:02:51;;;;;;;20.92;7.10;;;-2.70;99.90;;;;;;4968470;28;87581;-79
2024/01/09 10:05:17;;;;;;;;;;;-2.60;99.90;;;;;;4965148;28;86615;-79
2024/01/09 10:07:46;;;;;;;13.48;5.57;;;-2.50;99.90;;;;;;4968038;28;87362;-79
2024/01/09 10:10:14;;;;;;;13.48;6.28;;;-2.50;99.90;;;;;;4964217;28;87761;-79
2024/01/09 10:12:41;;;;;;;11.23;5.57;;;-2.40;99.90;;;;;;4939588;28;88187;-79
2024/01/09 10:15:08;;;;;;;14.35;6.10;;;-2.30;99.90;;;;;;4956292;28;88056;-78
2024/01/09 10:17:38;;;;;;;17.45;8.98;;;-2.30;99.90;;;;;;4947509;28;87659;-80
2024/01/09 10:20:08;;;;;;;11.65;5.93;;;-2.20;99.90;;;;;;4956969;28;88408;-79
2024/01/09 10:22:38;;;;;;;12.82;5.95;;;-2.20;99.90;;;;;;4948712;28;87191;-77
2024/01/09 10:25:12;;;;;;;12.13;5.63;;;-2.00;99.90;;;;;;4960261;28;87729;-80
2024/01/09 10:27:39;;;;;;;15.50;6.82;;;-1.90;99.90;;;;;;4939069;28;88378;-81
2024/01/09 10:30:09;;;;;;;14.13;5.90;;;-1.80;99.90;;;;;;4950429;28;87092;-80
2024/01/09 10:32:38;;;;;;;15.27;6.10;;;-1.70;99.90;;;;;;4947973;28;87640;-77
2024/01/09 10:35:05;;;;;;;18.77;6.75;;;-1.60;99.90;;;;;;4947893;28;87839;-81
2024/01/09 10:37:31;;;;;;;14.52;6.20;;;-1.50;99.80;;;;;;4961081;28;89705;-79
2024/01/09 10:40:04;;;;;;;17.67;6.50;;;-1.30;99.60;;;;;;4964123;28;88886;-80
2024/01/09 10:42:30;;;;;;;13.85;5.30;;;-1.30;99.70;;;;;;4947478;28;87113;-79
2024/01/09 10:44:59;;;;;;;11.02;5.47;;;-1.10;99.10;;;;;;4966320;28;87571;-80
2024/01/09 10:47:27;;;;;;;9.93;4.97;;;-1.00;98.20;;;;;;4961096;28;87503;-78
2024/01/09 10:49:54;;;;;;;13.57;5.82;;;-1.00;98.20;;;;;;4940652;28;88719;-83
2024/01/09 10:52:21;;;;;;;11.32;5.93;;;-0.90;98.10;;;;;;4960993;28;87056;-79
2024/01/09 10:54:47;;;;;;;14.55;5.90;;;-0.80;97.30;;;;;;4945376;28;86871;-80
2024/01/09 10:57:14;;;;;;;12.02;5.20;;;-0.70;97.30;;;;;;4961728;28;87308;-79
2024/01/09 10:59:44;;;;;;;13.52;5.90;;;-0.60;97.20;;;;;;4937911;28;87367;-81
2024/01/09 11:02:17;;;;;;;12.65;5.35;;;-0.50;96.60;;;;;;4961566;28;89107;-81
2024/01/09 11:04:44;;;;;;;13.98;5.72;;;-0.50;96.20;;;;;;4944604;28;88225;-79
2024/01/09 11:07:14;;;;;;;17.08;5.90;;;-0.40;95.10;;;;;;4961259;28;87228;-77
2024/01/09 11:09:43;;;;;;;12.88;5.25;;;-0.40;95.60;;;;;;4960973;28;87523;-80
2024/01/09 11:12:15;;;;;;;13.32;5.47;;;-0.30;94.90;;;;;;4953724;28;88011;-82
2024/01/09 11:14:45;;;;;;;11.60;5.35;;;-0.20;95.00;;;;;;4941370;28;87430;-79
2024/01/09 11:17:12;;;;;;;12.15;5.05;;;-0.10;94.20;;;;;;4945743;28;88670;-77
2024/01/09 11:19:39;;;;;;;9.68;4.80;;;-0.10;94.30;;;;;;4946161;28;87723;-80
2024/01/09 11:22:18;;;;;;;10.35;5.05;;;-0.10;94.90;;;;;;4937437;28;87270;-79
2024/01/09 11:24:56;;;;;;;10.55;5.03;;;0.10;93.30;;;;;;4956277;28;87179;-78
2024/01/09 11:27:23;;;;;;;12.45;5.53;;;0.10;93.10;;;;;;4946469;28;88806;-80
2024/01/09 11:29:49;;;;;;;12.45;5.68;;;0.20;92.80;;;;;;4958339;28;92835;-81
2024/01/09 11:32:16;;;;;;;11.13;5.05;;;0.30;93.30;;;;;;4965325;28;87416;-80
2024/01/09 11:34:47;;;;;;;9.07;4.60;;;0.40;93.20;;;;;;4962313;28;87621;-81
2024/01/09 11:37:18;;;;;;;10.50;5.38;;;0.50;92.20;;;;;;4947549;28;87700;-78
2024/01/09 11:39:45;;;;;;;14.35;5.43;;;0.60;92.30;;;;;;4955156;28;88359;-80
2024/01/09 11:42:11;;;;;;;10.85;5.43;;;0.60;92.10;;;;;;4930552;28;87728;-82
2024/01/09 11:44:42;;;;;;;11.63;5.78;;;0.70;91.30;;;;;;4946757;28;87366;-84
2024/01/09 11:47:08;;;;;;;11.38;5.05;;;0.80;91.30;;;;;;4933809;28;87907;-80
2024/01/09 11:49:33;;;;;;;11.32;4.82;;;0.80;90.20;;;;;;4966828;28;87494;-78
2024/01/09 11:51:59;;;;;;;10.60;5.07;;;0.90;91.30;;;;;;4953926;28;88584;-78
2024/01/09 11:54:26;;;;;;;12.20;5.35;;;0.90;88.60;;;;;;4972416;28;87374;-79
2024/01/09 11:56:52;;;;;;;12.32;5.82;;;1.00;88.20;;;;;;4970715;28;87117;-78
2024/01/09 11:59:18;;;;;;;11.15;5.22;;;1.00;90.40;;;;;;4976957;23;87287;-80
2024/01/09 12:01:53;;;;;;;13.73;5.57;;;1.10;89.30;;;;;;4914255;28;87696;-78
2024/01/09 12:04:20;;;;;;;10.38;4.82;;;1.20;90.50;;;;;;4997655;23;88033;-79
2024/01/09 12:06:51;;;;;;;11.90;5.60;;;1.30;90.40;;;;;;4941292;28;88050;-79
2024/01/09 12:09:31;;;;;;;10.23;5.18;;;1.40;90.20;;;;;;5018604;22;87972;-77
2024/01/09 12:12:11;;;;;;;14.60;5.68;;;1.50;87.80;;;;;;5286813;22;88336;-78
2024/01/09 12:17:52;;;;;;;9.85;5.07;;;1.60;86.90;;;;;;5481400;22;89344;-77
2024/01/09 12:20:20;;;;;;;11.60;5.60;;;1.70;87.10;;;;;;5213061;23;88679;-78
2024/01/09 12:22:47;;;;;;;10.40;5.22;;;1.80;85.20;;;;;;4935135;28;87524;-77
2024/01/09 12:25:17;;;;;;;11.27;5.55;;;1.90;83.40;;;;;;4950307;28;87343;-78
2024/01/09 12:27:45;;;;;;;10.95;5.20;;;1.90;84.50;;;;;;4934239;28;88173;-78
2024/01/09 12:32:47;;;;;;;12.65;5.07;;;1.90;80.50;;;;;;5501502;22;89124;-78
2024/01/09 12:40:23;;;;;;;12.25;5.95;;;2.30;83.00;;;;;;4929183;28;87085;-78
2024/01/09 13:00:53;;;;;;;23.08;7.25;;;2.80;78.00;;;;;;5144201;22;88691;-77
2024/01/09 13:03:20;;;;;;;11.55;5.63;;;2.80;75.60;;;;;;5032511;23;87786;-77
2024/01/09 13:05:47;;;;;;;9.02;5.40;;;2.90;77.90;;;;;;4939393;28;87740;-77
2024/01/09 13:08:13;;;;;;;15.20;5.32;;;3.10;75.80;;;;;;4942916;28;88335;-77
2024/01/09 13:10:38;;;;;;;12.27;5.85;;;3.10;74.80;;;;;;4924107;28;88310;-78
2024/01/09 13:13:04;;;;;;;13.57;5.90;;;3.10;74.20;;;;;;4937593;28;87335;-77
2024/01/09 13:15:30;;;;;;;12.73;5.63;;;3.20;76.60;;;;;;4925223;28;87429;-79